Aeroporto :
LOGIN :

Iscrizione | Disclaimer

   EN    FR    IT 

 










Sommario :    VFR   VFR Marginale   IFR   IFR Intensivo   IFR Molto Intensivo
Visibilità : 
Base nubi : 
>= 8 km
>= 3000ft
5 / 8 km
1000 / 3000 ft
1500m / 5 km
500 / 1000 ft
800 / 1500m
200 / 500 ft
< 800m
< 200 ft
Simboli :   Temporali  Nebbia  Neve Forte  Precipitazioni Forti  Vento > 20 kt
SIGMETs :   Varie  Temporali  Ghiacco  Turbolenza  Onda orograficha  Ceneri Vulcaniche






- Altitudine del aeroporto : 479 ft
- Codice IATA : DOL


LFRG - Deauville

ULTIMO METAR :
  • 281200Z AUTO 17015KT 9999 -DZ OVC012 06/04 Q1010 BECMG 18015G30KT OVC008

METARs OBSOLETI :
  • 281130Z AUTO 17016KT 9999 -RA OVC011 05/04 Q1011 BECMG 18015G30KT OVC008
  • 281100Z AUTO 16019KT 6000 -RA BKN007 OVC014 04/04 Q1011 TEMPO 4000 RA BKN012 BECMG 16015G25KT
  • 281030Z AUTO 16018KT 6000 -RA SCT015/// BKN020/// OVC031/// ///TCU 04/03 Q1012 TEMPO 4000 RA BKN012 BECMG 16015G25KT
  • 281000Z AUTO 16018G29KT 9000 -RA FEW016/// SCT026/// OVC035/// ///TCU 04/03 Q1012 TEMPO 4000 RA BKN012
  • 280930Z AUTO 16015KT 9999 -RA FEW031/// BKN039/// OVC049/// ///TCU 05/03 Q1013 TEMPO 4000 RA BKN012 BECMG 16015G25KT

TAF TAF LFRG
Valido dal 28 a 12 ore il 28 a 21 ore UTC


281100Z 2812/2821 18015G30KT 9999 BKN015
BECMG 2812/2814 OVC008
TEMPO 2814/2818 4000 RADZ BKN003
BECMG 2818/2820 BKN015
PROB40
TEMPO 2818/2821 BKN008
ATIS : +33 2 31 65 65 36



MetMap, La meteo Aeronautica in un colpo d'occhio ! - Copyright ORBIFLY Dicembre 2007 - Disclaimer

ORBIFLY MET'MAP TEAM :

Programmazione e sviluppo : Alexandra Zaïnal
Concezione : Baudouin d'Aumeries
Aiuto per la programmazione : Marc-Olivier Méhu
Supporto tecnico e logistico : Manuel Goepfert
Aiuto per la traduzione : Arnaldo La Scala

Contatto : metmap@orbifly.com




FONTI E CREDITI :

   NOAA